^^

NEARBY METAR REPORTS

KSQI - Sterling Rockfal, Illinois, USA
Distance from station: ESE 17mi, 27km
Updated: 04/15/2019 11:56am
NOT Current
Clear
Clear
 Wind from varies
Wind: varies 5 mph , 7 km/h
Temperature: 48°F , 9°C
Wind Chill: 46°F , 8°C
Dew Point: 34°F , 1°C
Humidity: 58%
Barometer: 30.05 inHg , 1017.6 hPa
Clouds: Clear
Visibility: 10 miles , 16 km
2019/04/15 16:56 KSQI 151656Z AUTO VRB04KT 10SM CLR 09/01 A3005 RMK AO2 SLP198 T00940006
KCWI - Clinton Muni, Iowa, USA
Distance from station: W 17mi, 28km
Updated: 04/24/2019 6:56am
NOT Current
Mist, Clear
Mist, Clear
 Wind from ENE
Wind: ENE 6 mph , 9 km/h
Temperature: 43°F , 6°C
Wind Chill: 39°F , 4°C
Dew Point: 41°F , 5°C
Humidity: 93%
Barometer: 30.02 inHg , 1016.6 hPa
Clouds: Clear
Visibility: 4 miles , 6 km
2019/04/24 11:56 KCWI 241156Z AUTO 07005KT 4SM BR CLR 06/05 A3002 RMK AO2 SLP192 T00560050 10089 20050 50000
KSFY - Savanna/Tritown, Illinois, USA
Distance from station: NNW 17mi, 28km
Updated: 04/24/2019 6:56am
NOT Current
Mist, Clear
Mist, Clear
 Wind from ENE
Wind: ENE 3 mph , 6 km/h
Temperature: 43°F , 6°C
Dew Point: 39°F , 4°C
Humidity: 87%
Barometer: 30.01 inHg , 1016.3 hPa
Clouds: Clear
Visibility: 4 miles , 6 km
2019/04/24 11:56 KSFY 241156Z AUTO 06003KT 4SM BR CLR 06/04 A3001 RMK AO2
KDVN - Davenport/Quad C, Iowa, USA
Distance from station: WSW 34mi, 55km
Updated: 04/24/2019 6:52am
NOT Current
Mist, Clear
Mist, Clear
 Wind from ESE
Wind: ESE 5 mph , 7 km/h
Temperature: 46°F , 8°C
Wind Chill: 44°F , 7°C
Dew Point: 43°F , 6°C
Humidity: 87%
Barometer: 30.02 inHg , 1016.6 hPa
Clouds: Clear
Visibility: 4 miles , 6 km
2019/04/24 11:52 KDVN 241152Z AUTO 11004KT 4SM BR CLR 08/06 A3002 RMK AO2 SLP164 T00780061 10100 20067 50000
KFEP - Freeport, Illinois, USA
Distance from station: NE 36mi, 58km
Updated: 04/24/2019 7:15am
Mist, Clear
Mist, Clear
 Wind from SE
Wind: SE 3 mph , 6 km/h
Temperature: 45°F , 7°C
Dew Point: 45°F , 7°C
Humidity: 100%
Barometer: 30.04 inHg , 1017.3 hPa
Clouds: Clear
Visibility: 5 miles , 8 km
2019/04/24 12:15 KFEP 241215Z AUTO 14003KT 5SM BR CLR 07/07 A3004 RMK AO2 T00670067
KMLI - Moline/Quad City, Illinois, USA
Distance from station: SW 38mi, 61km
Updated: 04/24/2019 7:22am
Mist, Clear
Mist, Clear
 Wind from E
Wind: E 6 mph , 9 km/h
Temperature: 48°F , 9°C
Wind Chill: 45°F , 7°C
Dew Point: 46°F , 8°C
Humidity: 94%
Barometer: 30.00 inHg , 1015.9 hPa
Clouds: Clear
Visibility: 3 miles , 5 km
2019/04/24 12:22 KMLI 241222Z 08005KT 3SM BR CLR 09/08 A3000 RMK AO2 T00940078
KRPJ - Rochelle/Koritz, Illinois, USA
Distance from station: E 46mi, 75km
Updated: 04/24/2019 7:10am
Mist, Clear
Mist, Clear
 Wind from ESE
Wind: ESE 6 mph , 9 km/h
Temperature: 45°F , 7°C
Wind Chill: 42°F , 6°C
Dew Point: 45°F , 7°C
Humidity: 100%
Barometer: 30.03 inHg , 1016.9 hPa
Clouds: Clear
Visibility: 2 miles , 3 km
2019/04/24 12:10 KRPJ 241210Z AUTO 11005KT 2SM BR CLR 07/07 A3003 RMK AO2 T00660066
KRFD - Rockford, Illinois, USA
Distance from station: ENE 52mi, 84km
Updated: 04/24/2019 6:54am
NOT Current
Mist, Mostly cloudy
Mist, Mostly cloudy
 Wind from ESE
Wind: ESE 3 mph , 6 km/h
Temperature: 45°F , 7°C
Dew Point: 43°F , 6°C
Humidity: 93%
Barometer: 30.04 inHg , 1017.3 hPa
Clouds: Mostly Cloudy
Visibility: 3 miles , 5 km
Cloud details: Few Clouds 20000 ft
Mostly Cloudy 25000 ft
2019/04/24 11:54 KRFD 241154Z 12003KT 3SM BR FEW200 BKN250 07/06 A3004 RMK AO2 SLP174 T00670056 10094 20061 51006
KVYS - Peru, Illinois, USA
Distance from station: SE 54mi, 86km
Updated: 04/24/2019 7:15am
Mist, Clear
Mist, Clear
 Wind from E
Wind: E 3 mph , 6 km/h
Temperature: 45°F , 7°C
Dew Point: 43°F , 6°C
Humidity: 93%
Barometer: 30.04 inHg , 1017.3 hPa
Clouds: Clear
Visibility: 5 miles , 8 km
2019/04/24 12:15 KVYS 241215Z AUTO 09003KT 5SM BR CLR 07/06 A3004 RMK AO2 T00710055
KDBQ - Dubuque, Iowa, USA
Distance from station: NW 55mi, 88km
Updated: 04/24/2019 6:53am
NOT Current
Clear
Clear
 Wind from SSW
Wind: SSW 3 mph , 6 km/h
Temperature: 41°F , 5°C
Dew Point: 37°F , 3°C
Humidity: 87%
Barometer: 30.00 inHg , 1015.9 hPa
Clouds: Clear
Visibility: 10 miles , 16 km
2019/04/24 11:53 KDBQ 241153Z 20003KT 10SM CLR 05/03 A3000 RMK AO2 SLP161 T00500033 10089 20044 55000